Time;durP1;ratioP1;P1;durP2;ratioP2;P2;SDS_P1;SDS_P2;PMS_P1;PMS_P2;Temp;Humidity;BMP_temperature;BMP_pressure;BME280_temperature;BME280_humidity;BME280_pressure;Samples;Min_cycle;Max_cycle;Signal;HPM_P1;HPM_P2
2021/09/17 00:01:43;;;;;;;11.00;6.93;;;;;;;23.40;41.14;99687.59;5054067;28;20381;-49
2021/09/17 00:04:08;;;;;;;10.95;7.10;;;;;;;23.01;41.94;99682.28;5061629;28;20032;-48
2021/09/17 00:06:34;;;;;;;9.43;6.90;;;;;;;22.93;42.75;99670.16;5060836;28;20031;-49
2021/09/17 00:08:59;;;;;;;10.50;6.95;;;;;;;22.49;44.22;99676.56;5063330;28;20032;-49
2021/09/17 00:11:25;;;;;;;10.23;6.60;;;;;;;21.54;47.16;99680.38;5052892;28;20405;-50
2021/09/17 00:13:50;;;;;;;10.20;7.38;;;;;;;21.44;47.85;99690.16;5063477;28;20080;-47
2021/09/17 00:16:16;;;;;;;10.48;7.10;;;;;;;21.80;47.05;99683.75;5058311;28;20032;-49
2021/09/17 00:18:41;;;;;;;10.70;7.13;;;;;;;22.22;45.54;99687.84;5056746;28;20025;-50
2021/09/17 00:21:07;;;;;;;14.60;7.00;;;;;;;21.95;46.91;99681.00;5065479;28;20052;-48
2021/09/17 00:23:32;;;;;;;10.13;7.20;;;;;;;21.72;47.19;99682.44;5052849;28;20081;-48
2021/09/17 00:25:58;;;;;;;11.10;7.25;;;;;;;22.19;45.94;99691.91;5062676;28;20420;-47
2021/09/17 00:28:24;;;;;;;15.70;7.45;;;;;;;22.29;45.76;99684.84;5059518;28;20027;-50
2021/09/17 00:30:49;;;;;;;10.02;7.13;;;;;;;22.48;45.40;99683.06;5055680;28;20017;-48
2021/09/17 00:33:15;;;;;;;10.68;7.70;;;;;;;22.49;45.37;99690.09;5065703;28;20368;-50
2021/09/17 00:35:40;;;;;;;8.57;7.13;;;;;;;22.44;45.83;99682.00;5053462;28;20028;-50
2021/09/17 00:38:06;;;;;;;10.82;7.07;;;;;;;22.49;45.74;99681.19;5061375;28;20378;-50
2021/09/17 00:40:32;;;;;;;11.63;7.28;;;;;;;22.23;46.51;99681.31;5061047;28;20345;-48
2021/09/17 00:42:57;;;;;;;11.25;7.47;;;;;;;22.29;46.47;99688.34;5054866;28;20104;-49
2021/09/17 00:45:23;;;;;;;12.50;7.25;;;;;;;21.93;47.19;99679.63;5065974;28;20032;-48
2021/09/17 00:47:48;;;;;;;8.95;7.30;;;;;;;21.86;47.41;99688.06;5054656;28;20092;-48
2021/09/17 00:50:16;;;;;;;13.73;7.65;;;;;;;21.92;47.13;99692.38;5060729;28;20017;-48
2021/09/17 00:52:42;;;;;;;11.57;6.85;;;;;;;22.03;47.13;99693.13;5062202;28;20084;-50
2021/09/17 00:55:08;;;;;;;8.98;7.25;;;;;;;21.97;47.35;99691.50;5051732;28;20028;-47
2021/09/17 00:57:34;;;;;;;10.85;7.25;;;;;;;22.17;46.66;99698.72;5066198;28;20017;-49
2021/09/17 01:00:00;;;;;;;9.77;7.68;;;;;;;22.31;46.43;99693.50;5054839;28;20017;-49
2021/09/17 01:02:25;;;;;;;14.10;7.60;;;;;;;22.41;46.20;99694.25;5069677;28;20036;-48
2021/09/17 01:04:51;;;;;;;13.60;7.45;;;;;;;22.48;45.88;99695.81;5055727;28;20563;-48
2021/09/17 01:07:16;;;;;;;12.43;7.38;;;;;;;22.39;46.04;99693.72;5060106;28;20025;-50
2021/09/17 01:09:42;;;;;;;10.05;6.93;;;;;;;22.28;46.37;99685.94;5065008;28;20017;-48
2021/09/17 01:12:07;;;;;;;12.48;7.38;;;;;;;22.30;46.32;99684.56;5039087;28;20385;-48
2021/09/17 01:14:35;;;;;;;10.25;7.43;;;;;;;22.28;46.64;99685.94;5057900;28;20079;-53
2021/09/17 01:17:01;;;;;;;13.70;7.57;;;;;;;22.15;46.79;99677.31;5064432;28;20037;-47
2021/09/17 01:19:26;;;;;;;11.15;7.57;;;;;;;21.86;47.46;99669.91;5052556;28;20112;-48
2021/09/17 01:22:06;;;;;;;12.43;7.15;;;;;;;21.72;47.98;99668.91;5063147;28;20021;-48
2021/09/17 01:24:31;;;;;;;9.30;6.87;;;;;;;22.13;47.21;99673.28;5060317;28;20024;-48
2021/09/17 01:26:57;;;;;;;10.18;7.50;;;;;;;22.17;47.03;99667.00;5057923;28;20794;-48
2021/09/17 01:29:23;;;;;;;12.73;7.28;;;;;;;22.29;46.76;99663.97;5069463;28;20078;-48
2021/09/17 01:31:49;;;;;;;8.73;6.97;;;;;;;22.27;47.05;99657.22;5058049;28;20090;-50
2021/09/17 01:34:19;;;;;;;11.88;6.82;;;;;;;21.90;47.89;99661.25;5064114;28;20031;-49
2021/09/17 01:36:44;;;;;;;8.93;6.68;;;;;;;22.16;47.23;99659.97;5065731;28;20024;-48
2021/09/17 01:39:10;;;;;;;8.98;6.80;;;;;;;22.36;46.97;99660.94;5056537;28;20424;-48
2021/09/17 01:41:35;;;;;;;7.95;7.03;;;;;;;22.51;46.40;99660.00;5069584;28;20072;-48
2021/09/17 01:44:01;;;;;;;12.88;6.53;;;;;;;22.41;46.53;99650.88;5060203;28;20432;-51
2021/09/17 01:46:26;;;;;;;10.20;6.78;;;;;;;21.72;48.39;99635.59;5062720;28;20032;-50
2021/09/17 01:48:52;;;;;;;8.73;6.53;;;;;;;21.65;48.66;99628.59;5067501;28;20029;-48
2021/09/17 01:51:17;;;;;;;11.90;7.10;;;;;;;21.50;49.34;99628.69;5056659;28;20032;-51
2021/09/17 01:53:43;;;;;;;10.18;6.47;;;;;;;21.20;49.95;99625.00;5068469;28;20048;-51
2021/09/17 01:56:08;;;;;;;8.43;6.97;;;;;;;21.58;49.02;99622.69;5060649;28;20396;-50
2021/09/17 01:58:34;;;;;;;13.13;6.22;;;;;;;21.86;48.08;99634.72;5061036;28;20021;-51
2021/09/17 02:01:00;;;;;;;9.25;6.30;;;;;;;21.85;48.06;99637.69;5067548;28;20033;-51
2021/09/17 02:03:25;;;;;;;12.68;6.93;;;;;;;21.92;47.81;99642.81;5036768;28;20045;-48
2021/09/17 02:05:50;;;;;;;10.77;6.75;;;;;;;22.03;47.58;99642.44;5067106;28;20108;-50
2021/09/17 02:08:16;;;;;;;9.85;7.20;;;;;;;22.18;47.45;99651.53;5061472;28;20439;-51
2021/09/17 02:10:42;;;;;;;11.23;6.97;;;;;;;22.30;47.01;99641.19;5059825;28;20029;-48
2021/09/17 02:13:07;;;;;;;13.70;7.20;;;;;;;21.58;48.91;99638.94;5068057;28;20532;-50
2021/09/17 02:15:33;;;;;;;12.38;7.40;;;;;;;21.67;48.48;99637.25;5055654;28;20020;-51
2021/09/17 02:17:58;;;;;;;11.23;7.28;;;;;;;21.43;49.46;99626.25;5065595;28;20039;-48
2021/09/17 02:20:24;;;;;;;12.15;7.05;;;;;;;21.15;49.93;99632.31;5062143;28;20020;-47
2021/09/17 02:22:49;;;;;;;11.75;7.13;;;;;;;21.56;49.01;99632.19;5058092;28;20029;-48
2021/09/17 02:25:15;;;;;;;8.98;7.25;;;;;;;21.78;48.49;99638.03;5068636;28;20039;-49
2021/09/17 02:27:40;;;;;;;9.55;7.20;;;;;;;21.93;48.03;99647.13;5056115;28;20025;-48
2021/09/17 02:30:07;;;;;;;10.43;6.97;;;;;;;22.16;47.61;99643.72;5064627;28;20033;-50
2021/09/17 02:32:32;;;;;;;11.02;7.50;;;;;;;22.10;47.53;99642.13;5063471;28;20020;-51
2021/09/17 02:34:58;;;;;;;11.15;7.35;;;;;;;22.29;46.99;99645.00;5057484;28;20025;-50
2021/09/17 02:37:23;;;;;;;11.38;7.82;;;;;;;22.08;47.28;99641.59;5067440;28;20028;-51
2021/09/17 02:39:49;;;;;;;8.85;7.40;;;;;;;21.98;47.53;99638.97;5058111;28;20074;-50
2021/09/17 02:42:14;;;;;;;12.77;7.70;;;;;;;21.88;47.76;99626.31;5063177;28;20047;-48
2021/09/17 02:44:40;;;;;;;9.70;7.88;;;;;;;21.79;47.99;99609.84;5064712;28;20054;-51
2021/09/17 02:47:05;;;;;;;14.07;7.60;;;;;;;21.46;48.89;99614.09;5056371;28;20381;-50
2021/09/17 02:49:33;;;;;;;11.40;7.80;;;;;;;21.00;50.33;99617.78;5068495;28;20148;-49
2021/09/17 02:52:00;;;;;;;13.35;7.90;;;;;;;21.33;49.55;99622.78;5058398;28;20020;-47
2021/09/17 02:54:25;;;;;;;10.18;7.72;;;;;;;21.37;49.16;99629.28;5060678;28;20032;-50
2021/09/17 02:56:51;;;;;;;13.13;8.23;;;;;;;21.61;48.75;99632.97;5065144;28;20125;-50
2021/09/17 02:59:16;;;;;;;14.52;7.75;;;;;;;21.62;48.73;99629.16;5055050;28;20480;-51
2021/09/17 03:01:42;;;;;;;11.80;7.80;;;;;;;21.65;48.42;99631.31;5067043;28;20089;-48
2021/09/17 03:04:07;;;;;;;12.00;7.57;;;;;;;21.62;48.25;99629.16;5059568;28;20448;-51
2021/09/17 03:06:33;;;;;;;10.18;7.93;;;;;;;21.80;48.18;99629.59;5059857;28;20067;-52
2021/09/17 03:08:58;;;;;;;13.32;7.88;;;;;;;21.84;47.96;99627.97;5066248;28;20035;-51
2021/09/17 03:11:23;;;;;;;11.20;7.75;;;;;;;21.85;47.97;99621.44;5054437;28;20091;-51
2021/09/17 03:13:49;;;;;;;13.50;8.77;;;;;;;21.75;47.79;99614.19;5065828;28;20041;-51
2021/09/17 03:16:14;;;;;;;12.63;7.63;;;;;;;21.71;48.19;99617.75;5060208;28;20035;-51
2021/09/17 03:18:40;;;;;;;19.95;10.25;;;;;;;21.78;48.29;99619.06;5058770;28;20021;-51
2021/09/17 03:21:05;;;;;;;11.82;8.43;;;;;;;21.95;47.50;99615.97;5059108;28;20031;-50
2021/09/17 03:23:31;;;;;;;9.98;7.80;;;;;;;21.80;48.20;99622.28;5054115;28;20024;-51
2021/09/17 03:25:57;;;;;;;10.65;8.07;;;;;;;21.63;48.29;99611.03;5064574;28;20045;-49
2021/09/17 03:28:22;;;;;;;10.68;8.25;;;;;;;21.58;48.71;99609.16;5061348;28;20138;-48
2021/09/17 03:30:47;;;;;;;12.45;8.10;;;;;;;21.50;48.79;99608.94;5057420;28;20025;-49
2021/09/17 03:33:15;;;;;;;13.88;7.85;;;;;;;21.70;48.69;99619.63;5067400;28;20025;-48
2021/09/17 03:35:41;;;;;;;13.65;8.35;;;;;;;21.78;48.00;99615.53;5055077;28;20024;-52
2021/09/17 03:38:07;;;;;;;11.90;8.35;;;;;;;21.72;48.47;99597.69;5063093;28;20036;-51
2021/09/17 03:40:35;;;;;;;15.43;8.20;;;;;;;21.75;47.97;99602.56;5062586;28;20029;-49
2021/09/17 03:43:01;;;;;;;11.85;8.57;;;;;;;21.70;48.40;99603.38;5055752;28;20108;-48
2021/09/17 03:45:27;;;;;;;12.73;8.75;;;;;;;21.65;48.02;99609.66;5067331;28;20032;-48
2021/09/17 03:47:52;;;;;;;12.18;8.50;;;;;;;21.71;48.03;99607.72;5055857;28;20021;-49
2021/09/17 03:50:18;;;;;;;12.23;8.32;;;;;;;21.76;48.51;99607.69;5060992;28;20454;-48
2021/09/17 03:52:43;;;;;;;13.52;8.25;;;;;;;21.62;48.05;99607.50;5063045;28;20376;-47
2021/09/17 03:55:09;;;;;;;11.55;8.15;;;;;;;21.71;47.79;99604.22;5053543;28;20400;-50
2021/09/17 03:57:34;;;;;;;11.90;7.80;;;;;;;21.85;47.95;99614.13;5066225;28;20028;-48
2021/09/17 04:00:00;;;;;;;13.43;8.93;;;;;;;21.94;47.44;99616.25;5057157;28;20069;-51
2021/09/17 04:02:25;;;;;;;13.68;8.40;;;;;;;21.98;48.95;99620.00;5059551;28;20401;-52
2021/09/17 04:04:51;;;;;;;11.63;8.23;;;;;;;22.02;47.69;99621.06;5063577;28;20047;-49
2021/09/17 04:07:16;;;;;;;16.10;8.90;;;;;;;22.11;47.62;99619.38;5053096;28;20096;-49
2021/09/17 04:09:42;;;;;;;15.60;8.98;;;;;;;22.16;47.09;99616.63;5064786;28;20052;-50
2021/09/17 04:12:07;;;;;;;15.60;9.00;;;;;;;22.08;46.85;99628.03;5055979;28;20056;-50
2021/09/17 04:14:33;;;;;;;23.30;9.57;;;;;;;22.11;46.65;99626.69;5057786;28;20033;-48
2021/09/17 04:16:58;;;;;;;15.32;9.52;;;;;;;22.06;47.01;99622.09;5064417;28;20025;-49
2021/09/17 04:19:24;;;;;;;15.15;10.15;;;;;;;22.15;46.93;99625.03;5051095;28;20424;-49
2021/09/17 04:21:49;;;;;;;13.65;9.50;;;;;;;22.20;46.60;99630.38;5056120;28;20028;-49
2021/09/17 04:24:15;;;;;;;15.75;10.27;;;;;;;22.14;46.79;99624.22;5058019;28;20342;-48
2021/09/17 04:26:40;;;;;;;17.25;9.45;;;;;;;22.10;47.09;99625.06;5056480;28;20028;-51
2021/09/17 04:29:06;;;;;;;17.38;9.57;;;;;;;22.09;47.28;99626.97;5064896;28;20456;-49
2021/09/17 04:31:32;;;;;;;15.50;9.30;;;;;;;22.20;46.74;99614.97;5049533;28;20101;-50
2021/09/17 04:33:57;;;;;;;17.65;9.70;;;;;;;22.31;47.03;99617.59;5061607;28;20039;-48
2021/09/17 04:36:23;;;;;;;27.33;9.45;;;;;;;22.47;46.97;99619.09;5040061;28;20025;-49
2021/09/17 04:38:48;;;;;;;17.02;9.68;;;;;;;22.54;46.40;99627.72;5054775;28;20449;-49
2021/09/17 04:41:14;;;;;;;22.10;9.57;;;;;;;22.55;46.72;99623.88;5063029;28;20047;-52
2021/09/17 04:43:39;;;;;;;17.10;9.55;;;;;;;22.56;46.34;99617.38;5053247;28;20051;-48
2021/09/17 04:46:05;;;;;;;13.98;9.23;;;;;;;22.55;46.25;99617.66;5061817;28;20025;-48
2021/09/17 04:48:30;;;;;;;18.73;9.32;;;;;;;22.57;45.83;99615.47;5059616;28;20098;-49
2021/09/17 04:50:56;;;;;;;14.60;9.32;;;;;;;22.54;46.03;99618.75;5054041;28;20123;-51
2021/09/17 04:53:23;;;;;;;17.92;9.43;;;;;;;22.55;45.88;99618.47;5064536;28;20021;-47
2021/09/17 04:55:49;;;;;;;17.50;9.60;;;;;;;22.56;45.99;99614.69;5053192;28;20463;-49
2021/09/17 04:58:14;;;;;;;13.20;9.20;;;;;;;22.54;45.74;99616.03;5058478;28;20049;-49
2021/09/17 05:00:40;;;;;;;14.20;9.18;;;;;;;22.59;45.69;99624.13;5060574;28;20021;-50
2021/09/17 05:03:05;;;;;;;52.15;37.10;;;;;;;22.55;46.13;99628.50;5054475;28;20021;-50
2021/09/17 05:05:31;;;;;;;29.98;17.30;;;;;;;22.62;45.85;99631.72;5066716;28;20094;-49
2021/09/17 05:07:56;;;;;;;22.02;13.13;;;;;;;22.63;45.95;99625.16;5056935;28;20177;-50
2021/09/17 05:10:22;;;;;;;21.67;11.98;;;;;;;22.61;46.70;99630.88;5060249;28;20017;-49
2021/09/17 05:12:47;;;;;;;18.48;9.63;;;;;;;22.83;46.37;99624.97;5064468;28;20040;-50
2021/09/17 05:15:13;;;;;;;15.60;10.00;;;;;;;22.78;46.00;99618.78;5053474;28;20017;-50
2021/09/17 05:17:39;;;;;;;18.98;9.10;;;;;;;23.19;45.00;99621.09;5067789;28;20073;-48
2021/09/17 05:20:05;;;;;;;17.60;9.90;;;;;;;23.35;44.64;99622.50;5059300;28;20031;-48
2021/09/17 05:22:30;;;;;;;15.35;10.55;;;;;;;23.71;43.83;99626.63;5051281;28;20036;-48
2021/09/17 05:24:57;;;;;;;16.90;8.88;;;;;;;23.62;44.18;99621.84;5065936;28;20032;-49
2021/09/17 05:27:22;;;;;;;18.63;9.25;;;;;;;23.78;43.78;99633.34;5054905;28;20082;-49
2021/09/17 05:29:48;;;;;;;16.48;9.30;;;;;;;23.92;43.97;99635.31;5066005;28;20183;-48
2021/09/17 05:32:14;;;;;;;17.05;8.57;;;;;;;24.22;43.25;99634.03;5059960;28;20423;-50
2021/09/17 05:34:39;;;;;;;16.08;8.65;;;;;;;24.34;42.74;99634.38;5058870;28;20056;-49
2021/09/17 05:37:05;;;;;;;16.48;9.40;;;;;;;24.47;42.70;99645.59;5066934;28;20125;-50
2021/09/17 05:39:31;;;;;;;13.75;8.85;;;;;;;24.56;42.64;99635.66;5055256;28;20149;-53
2021/09/17 05:41:56;;;;;;;11.65;8.95;;;;;;;24.96;41.74;99633.31;5065519;28;20165;-51
2021/09/17 05:44:21;;;;;;;12.75;9.07;;;;;;;25.06;41.60;99632.31;5062038;28;20032;-49
2021/09/17 05:46:47;;;;;;;13.77;8.50;;;;;;;25.36;41.25;99639.88;5057260;28;20013;-49
2021/09/17 05:49:12;;;;;;;17.35;9.80;;;;;;;25.79;40.65;99640.59;5068253;28;20021;-50
2021/09/17 05:51:38;;;;;;;13.13;8.88;;;;;;;25.89;40.12;99641.19;5055614;28;20360;-51
2021/09/17 05:54:03;;;;;;;13.23;9.00;;;;;;;25.88;39.95;99634.09;5063673;28;20020;-51
2021/09/17 05:56:29;;;;;;;15.07;9.02;;;;;;;25.78;40.19;99642.53;5061995;28;20020;-49
2021/09/17 05:58:55;;;;;;;14.35;8.65;;;;;;;25.37;40.80;99637.94;5056638;28;20021;-51
2021/09/17 06:01:20;;;;;;;11.90;9.13;;;;;;;25.24;41.21;99636.84;5066986;28;20059;-50
2021/09/17 06:03:46;;;;;;;11.75;9.23;;;;;;;25.18;41.23;99630.66;5055726;28;20091;-51
2021/09/17 06:06:12;;;;;;;11.57;8.65;;;;;;;25.22;41.32;99633.59;5062439;28;20037;-49
2021/09/17 06:08:37;;;;;;;13.57;9.02;;;;;;;25.07;41.59;99642.06;5061073;28;20047;-49
2021/09/17 06:11:03;;;;;;;21.95;12.70;;;;;;;25.23;41.69;99643.41;5055104;28;20013;-50
2021/09/17 06:13:28;;;;;;;15.75;9.60;;;;;;;25.08;41.98;99646.41;5065748;28;20062;-49
2021/09/17 06:15:54;;;;;;;13.45;9.38;;;;;;;25.26;41.09;99648.25;5056880;28;20024;-49
2021/09/17 06:18:19;;;;;;;15.80;9.68;;;;;;;25.51;40.86;99646.09;5061130;28;20021;-52
2021/09/17 06:20:45;;;;;;;13.15;8.60;;;;;;;25.73;39.95;99651.59;5063598;28;20028;-50
2021/09/17 06:23:11;;;;;;;15.98;9.23;;;;;;;25.73;40.25;99646.16;5054044;28;20020;-52
2021/09/17 06:25:37;;;;;;;12.07;8.20;;;;;;;25.75;40.20;99652.09;5067562;28;20157;-51
2021/09/17 06:28:04;;;;;;;13.02;9.48;;;;;;;25.96;39.79;99659.84;5058883;28;20020;-51
2021/09/17 06:30:30;;;;;;;13.70;9.38;;;;;;;26.14;39.56;99655.31;5060369;28;20044;-49
2021/09/17 06:32:55;;;;;;;12.43;9.27;;;;;;;25.91;40.12;99651.75;5064856;28;20147;-52
2021/09/17 06:35:21;;;;;;;16.98;9.02;;;;;;;26.16;40.00;99649.56;5053808;28;20040;-52
2021/09/17 06:37:51;;;;;;;19.50;9.18;;;;;;;26.26;39.81;99658.31;5065289;28;20453;-51
2021/09/17 06:40:18;;;;;;;15.80;8.82;;;;;;;26.33;40.42;99655.97;5060218;28;20020;-49
2021/09/17 06:42:43;;;;;;;17.40;9.13;;;;;;;26.44;39.83;99658.44;5057702;28;20105;-49
2021/09/17 06:45:09;;;;;;;13.77;9.70;;;;;;;26.33;39.30;99650.50;5067045;28;20115;-51
2021/09/17 06:47:53;;;;;;;17.17;9.93;;;;;;;26.34;39.82;99654.03;5046376;28;20016;-48
2021/09/17 06:50:19;;;;;;;14.02;9.80;;;;;;;26.09;39.83;99648.09;5061677;28;20100;-49
2021/09/17 06:52:47;;;;;;;16.90;9.60;;;;;;;25.91;40.04;99649.88;5064383;28;20101;-53
2021/09/17 06:55:17;;;;;;;17.52;9.55;;;;;;;25.91;40.29;99657.19;5054608;28;20361;-48
2021/09/17 06:57:50;;;;;;;16.10;10.48;;;;;;;25.99;40.52;99642.06;5065708;28;20017;-51
2021/09/17 07:00:16;;;;;;;20.25;9.70;;;;;;;25.82;41.06;99635.34;5060876;28;20028;-51
2021/09/17 07:02:42;;;;;;;19.15;9.10;;;;;;;25.39;42.61;99632.19;5057258;28;20035;-52
2021/09/17 07:05:08;;;;;;;17.55;9.73;;;;;;;25.26;41.97;99623.72;5066329;28;20032;-52
2021/09/17 07:07:33;;;;;;;26.52;10.40;;;;;;;25.24;42.14;99622.44;5053386;28;20024;-48
2021/09/17 07:09:59;;;;;;;17.60;9.65;;;;;;;24.70;43.22;99625.63;5063493;28;20033;-51
2021/09/17 07:12:24;;;;;;;17.48;9.30;;;;;;;24.77;43.18;99623.31;5049026;28;20175;-49
2021/09/17 07:14:50;;;;;;;14.85;9.57;;;;;;;25.01;42.75;99632.41;5065093;28;20032;-51
2021/09/17 07:17:15;;;;;;;14.75;9.52;;;;;;;24.95;42.40;99628.97;5054444;28;20025;-49
2021/09/17 07:19:41;;;;;;;22.83;10.10;;;;;;;24.61;43.03;99621.19;5066747;28;20033;-51
2021/09/17 07:22:07;;;;;;;14.38;9.60;;;;;;;24.84;42.67;99619.38;5058322;28;20146;-50
2021/09/17 07:24:33;;;;;;;18.92;10.00;;;;;;;24.71;42.84;99620.97;5058315;28;20025;-51
2021/09/17 07:26:58;;;;;;;20.52;9.93;;;;;;;25.06;42.38;99621.41;5065208;28;20035;-51
2021/09/17 07:29:24;;;;;;;22.02;10.07;;;;;;;25.43;41.49;99620.38;5053570;28;20024;-49
2021/09/17 07:31:49;;;;;;;21.38;10.23;;;;;;;25.69;41.00;99617.09;5064372;28;20067;-50
2021/09/17 07:34:15;;;;;;;22.15;10.88;;;;;;;25.67;40.75;99616.63;5058699;28;20029;-48
2021/09/17 07:36:40;;;;;;;21.20;11.25;;;;;;;25.55;40.77;99617.94;5056648;28;20029;-50
2021/09/17 07:39:06;;;;;;;18.92;10.82;;;;;;;25.83;40.28;99612.41;5066948;28;20032;-51
2021/09/17 07:41:31;;;;;;;20.98;10.98;;;;;;;26.41;39.20;99605.31;5054006;28;20487;-49
2021/09/17 07:43:57;;;;;;;16.58;9.57;;;;;;;26.60;39.62;99607.84;5063981;28;20024;-51
2021/09/17 07:46:22;;;;;;;24.60;9.88;;;;;;;26.66;39.16;99608.50;5058472;28;20429;-51
2021/09/17 07:48:48;;;;;;;15.27;9.40;;;;;;;26.99;38.06;99600.75;5064312;28;20058;-50
2021/09/17 07:51:13;;;;;;;15.00;9.15;;;;;;;27.63;37.11;99594.81;5053412;28;20405;-51
2021/09/17 07:53:39;;;;;;;19.17;9.63;;;;;;;27.99;35.87;99592.91;5065670;28;20055;-49
2021/09/17 07:56:04;;;;;;;14.65;9.32;;;;;;;28.03;36.59;99583.72;5057686;28;20025;-50
2021/09/17 07:58:30;;;;;;;18.52;9.55;;;;;;;28.26;35.93;99569.84;5057259;28;20031;-49
2021/09/17 08:00:55;;;;;;;18.40;10.07;;;;;;;28.59;34.57;99580.22;5064355;28;20056;-48
2021/09/17 08:03:22;;;;;;;15.98;9.40;;;;;;;28.57;34.94;99579.75;5053046;28;20297;-49
2021/09/17 08:05:47;;;;;;;16.35;9.98;;;;;;;28.52;34.11;99586.22;5064252;28;20068;-51
2021/09/17 08:08:13;;;;;;;15.63;10.07;;;;;;;28.44;34.67;99579.59;5058154;28;20057;-52
2021/09/17 08:10:38;;;;;;;23.02;10.45;;;;;;;28.45;34.68;99567.50;5057215;28;20036;-51
2021/09/17 08:13:04;;;;;;;17.77;10.05;;;;;;;28.53;34.64;99565.09;5065237;28;20496;-52
2021/09/17 08:15:29;;;;;;;20.33;10.15;;;;;;;28.31;34.67;99564.19;5052666;28;20123;-51
2021/09/17 08:17:55;;;;;;;16.10;8.98;;;;;;;28.89;34.43;99570.09;5063534;28;20036;-50
2021/09/17 08:20:21;;;;;;;15.45;9.07;;;;;;;29.31;32.78;99558.44;5059497;28;20036;-50
2021/09/17 08:22:47;;;;;;;16.75;8.52;;;;;;;29.03;32.81;99558.88;5056071;28;20033;-51
2021/09/17 08:25:12;;;;;;;11.95;8.23;;;;;;;29.46;32.19;99552.34;5066187;28;20032;-50
2021/09/17 08:27:39;;;;;;;16.80;8.20;;;;;;;29.49;33.09;99546.19;5053464;28;20456;-51
2021/09/17 08:30:05;;;;;;;12.43;7.50;;;;;;;30.11;32.06;99551.94;5061465;28;20540;-52
2021/09/17 08:32:31;;;;;;;16.33;8.55;;;;;;;31.09;29.78;99546.56;5060730;28;20013;-51
2021/09/17 08:34:56;;;;;;;8.88;7.05;;;;;;;31.23;29.97;99550.88;5054861;28;20047;-48
2021/09/17 08:37:22;;;;;;;15.27;7.63;;;;;;;31.44;29.87;99553.47;5066699;28;20487;-51
2021/09/17 08:39:47;;;;;;;11.73;7.72;;;;;;;31.88;29.16;99548.03;5055298;28;20020;-51
2021/09/17 08:42:13;;;;;;;10.35;7.30;;;;;;;31.76;28.86;99535.16;5061096;28;20447;-38
2021/09/17 08:44:38;;;;;;;11.98;7.45;;;;;;;31.43;29.55;99527.09;5062323;28;20128;-38
2021/09/17 08:47:05;;;;;;;11.20;7.65;;;;;;;31.36;29.88;99527.72;5053906;28;20089;-38
2021/09/17 08:49:31;;;;;;;17.77;7.68;;;;;;;31.20;29.84;99535.06;5052072;28;20046;-38
2021/09/17 08:51:57;;;;;;;9.15;7.47;;;;;;;31.36;29.85;99524.97;5061556;28;20051;-38
2021/09/17 08:54:22;;;;;;;11.18;8.07;;;;;;;31.83;29.30;99527.06;5059159;28;20028;-38
2021/09/17 08:56:48;;;;;;;13.07;7.32;;;;;;;32.08;28.75;99529.72;5069655;28;20480;-37
2021/09/17 08:59:13;;;;;;;12.40;7.47;;;;;;;32.33;28.54;99517.41;5068411;28;20057;-37
2021/09/17 09:01:39;;;;;;;13.98;7.72;;;;;;;33.01;28.05;99518.22;5053352;28;20505;-38
2021/09/17 09:04:07;;;;;;;13.02;7.80;;;;;;;33.19;26.87;99513.13;5061484;28;20044;-39
2021/09/17 09:06:38;;;;;;;11.32;7.68;;;;;;;33.17;26.99;99506.34;5060346;28;20529;-37
2021/09/17 09:09:04;;;;;;;12.05;7.65;;;;;;;33.10;27.23;99505.06;5060636;28;20037;-37
2021/09/17 09:11:30;;;;;;;18.00;7.60;;;;;;;33.31;27.03;99493.69;5064664;28;20044;-38
2021/09/17 09:13:59;;;;;;;12.98;7.45;;;;;;;32.84;27.73;99486.38;5055412;28;20036;-38
2021/09/17 09:16:25;;;;;;;9.95;7.72;;;;;;;33.05;27.29;99486.03;5058293;28;20029;-38
2021/09/17 09:18:50;;;;;;;12.23;8.07;;;;;;;33.55;26.51;99474.44;5062905;28;20178;-37
2021/09/17 09:21:29;;;;;;;12.82;7.75;;;;;;;33.93;25.77;99475.53;5050301;28;20397;-37
2021/09/17 09:24:11;;;;;;;12.77;8.00;;;;;;;33.42;26.26;99471.06;5061089;28;20048;-37
2021/09/17 09:26:36;;;;;;;10.10;8.15;;;;;;;32.68;26.59;99469.06;5060469;28;20048;-37
2021/09/17 09:29:02;;;;;;;12.63;8.00;;;;;;;33.15;25.75;99456.31;5051370;28;20021;-38
2021/09/17 09:31:27;;;;;;;13.25;8.13;;;;;;;33.26;25.69;99462.84;5064923;28;20032;-37
2021/09/17 09:33:53;;;;;;;16.70;8.55;;;;;;;33.23;25.87;99458.06;5036474;28;20106;-37
2021/09/17 09:36:20;;;;;;;11.75;7.75;;;;;;;33.77;25.33;99456.34;5059440;28;20025;-37
2021/09/17 09:38:46;;;;;;;11.30;8.00;;;;;;;33.92;24.96;99451.88;5062709;28;20082;-37
2021/09/17 09:41:17;;;;;;;12.57;7.53;;;;;;;33.91;23.77;99450.28;5052655;28;20488;-38
2021/09/17 09:44:14;;;;;;;11.20;7.80;;;;;;;33.98;23.84;99442.91;5064610;28;20032;-38
2021/09/17 09:46:41;;;;;;;12.85;7.90;;;;;;;33.88;24.25;99433.31;5058831;28;20016;-38
2021/09/17 09:49:08;;;;;;;12.98;7.82;;;;;;;34.24;23.52;99424.84;5068407;28;20016;-37
2021/09/17 09:51:56;;;;;;;12.77;7.90;;;;;;;34.44;23.19;99417.25;5055209;28;20028;-38
2021/09/17 09:54:23;;;;;;;12.10;8.02;;;;;;;34.10;24.34;99417.13;5061433;28;20094;-38
2021/09/17 09:56:49;;;;;;;11.15;8.18;;;;;;;33.98;24.70;99420.06;5051937;28;20102;-37
2021/09/17 09:59:15;;;;;;;12.30;7.75;;;;;;;33.17;25.18;99421.72;5069303;28;20028;-37
2021/09/17 10:01:40;;;;;;;9.38;7.90;;;;;;;33.62;24.74;99403.66;5049465;28;20025;-38
2021/09/17 10:04:06;;;;;;;13.95;7.97;;;;;;;34.22;24.66;99388.53;5060146;28;20085;-37
2021/09/17 10:06:36;;;;;;;17.30;8.60;;;;;;;32.89;25.27;99405.38;5060277;28;20028;-37
2021/09/17 10:09:06;;;;;;;12.93;7.85;;;;;;;31.36;26.95;99404.81;5063003;28;20032;-37
2021/09/17 10:11:32;;;;;;;15.90;7.85;;;;;;;32.23;25.96;99402.31;5055143;28;20448;-36
2021/09/17 10:13:59;;;;;;;16.77;8.15;;;;;;;32.81;25.35;99392.63;5064725;28;20245;-37
2021/09/17 10:16:26;;;;;;;18.85;7.90;;;;;;;32.16;26.54;99391.16;5061014;28;20029;-37
2021/09/17 10:18:51;;;;;;;11.65;7.95;;;;;;;32.78;25.06;99388.63;5036595;28;20204;-37
2021/09/17 10:21:45;;;;;;;15.50;7.90;;;;;;;33.23;24.65;99395.47;5065586;28;20111;-37
2021/09/17 10:24:35;;;;;;;14.00;7.90;;;;;;;32.75;24.99;99397.63;5059906;28;20028;-36
2021/09/17 10:27:09;;;;;;;;;;;;;;;33.14;24.48;99394.09;5051618;28;20072;-37
2021/09/17 10:29:42;;;;;;;12.48;7.20;;;;;;;33.21;23.88;99380.47;5055367;28;19919;-36
2021/09/17 10:32:34;;;;;;;12.50;7.40;;;;;;;33.53;24.24;99388.50;5063411;28;20052;-38
2021/09/17 10:35:12;;;;;;;13.45;7.70;;;;;;;33.28;23.68;99375.88;5061877;28;20114;-38
2021/09/17 10:38:28;;;;;;;9.13;7.05;;;;;;;33.49;23.77;99380.16;5040285;28;20052;-38
2021/09/17 10:40:55;;;;;;;9.50;7.07;;;;;;;32.86;24.55;99371.09;5015538;28;20045;-35
2021/09/17 10:43:21;;;;;;;11.57;7.82;;;;;;;33.23;24.40;99369.88;5010168;28;20029;-38
2021/09/17 10:46:05;;;;;;;10.73;7.60;;;;;;;33.72;23.89;99371.94;5034851;28;20032;-39
2021/09/17 10:48:40;;;;;;;14.02;7.57;;;;;;;33.76;23.56;99372.00;5054241;28;20016;-38
2021/09/17 10:51:06;;;;;;;13.98;7.50;;;;;;;33.61;24.07;99374.50;5054902;28;20492;-38
2021/09/17 10:53:40;;;;;;;8.80;7.20;;;;;;;34.36;23.84;99363.09;5066298;28;20102;-38
2021/09/17 10:56:12;;;;;;;15.68;7.63;;;;;;;34.58;23.26;99356.69;5058949;28;20407;-38
2021/09/17 10:58:41;;;;;;;11.20;7.60;;;;;;;34.86;23.24;99349.94;5057263;28;20545;-37
2021/09/17 11:01:16;;;;;;;12.90;8.20;;;;;;;34.08;23.72;99354.00;5067415;28;20024;-38
2021/09/17 11:03:42;;;;;;;14.20;7.70;;;;;;;33.69;23.92;99343.13;5040147;28;20024;-36
2021/09/17 11:09:00;;;;;;;10.18;7.03;;;;;;;33.94;23.56;99336.41;5063505;28;20404;-37
2021/09/17 11:11:27;;;;;;;9.77;7.25;;;;;;;34.10;23.08;99328.78;5053855;28;20116;-38
2021/09/17 11:13:55;;;;;;;10.88;7.15;;;;;;;33.40;24.60;99333.56;5064312;28;20045;-39
2021/09/17 11:16:22;;;;;;;11.90;7.60;;;;;;;32.95;25.20;99313.00;5060490;28;20039;-38
2021/09/17 11:18:54;;;;;;;12.30;7.40;;;;;;;33.72;24.42;99314.03;5057063;28;20135;-38
2021/09/17 11:21:20;;;;;;;11.70;7.43;;;;;;;33.00;25.12;99307.19;5052207;28;20033;-38
2021/09/17 11:23:49;;;;;;;14.63;6.90;;;;;;;33.38;24.25;99311.06;5065414;28;20048;-37
2021/09/17 11:26:20;;;;;;;12.75;7.38;;;;;;;33.69;24.40;99300.97;5050684;28;20509;-38
2021/09/17 11:29:02;;;;;;;12.18;8.00;;;;;;;33.78;24.82;99304.25;5057802;28;20475;-38